Terminal Aerodrome Forecast
Issued by NWS Sioux Falls, SD

Home | Current Version | Previous Version | Graphics & Text | Print | Product List | Glossary Off
Versions: 1 2 3 4 5 6 7 8 9 10 11 12 13

000
FTUS43 KFSD 161700 RRA
TAFSUX
TAF
KSUX 161749Z 1618/1718 20017G23KT P6SM SCT020 OVC040
     FM162300 30021G34KT P6SM OVC025
     FM170500 34016G22KT P6SM OVC015
     FM170900 33013KT P6SM SCT015 BKN100=

USA.gov is the U.S. government's official web portal to all federal, state and local government web resources and services.